Time;durP1;ratioP1;P1;durP2;ratioP2;P2;SDS_P1;SDS_P2;PMS_P1;PMS_P2;Temp;Humidity;BMP_temperature;BMP_pressure;BME280_temperature;BME280_humidity;BME280_pressure;Samples;Min_cycle;Max_cycle;Signal;HPM_P1;HPM_P2
2022/12/11 00:09:26;;;;;;;0.80;0.35;;;1.10;99.90;;;;;;20234502;23;20115;-57
2022/12/11 00:19:27;;;;;;;0.63;0.30;;;1.00;99.90;;;;;;20221696;23;20066;-55
2022/12/11 00:29:29;;;;;;;1.60;0.50;;;1.00;99.90;;;;;;20232468;23;20095;-56
2022/12/11 00:39:31;;;;;;;0.40;0.30;;;0.80;99.90;;;;;;20225945;23;20053;-61
2022/12/11 00:49:33;;;;;;;0.60;0.40;;;0.70;99.90;;;;;;20212520;23;20512;-61
2022/12/11 00:59:34;;;;;;;0.60;0.30;;;0.60;99.90;;;;;;20215348;23;20066;-58
2022/12/11 01:19:58;;;;;;;0.50;0.32;;;0.40;99.90;;;;;;20228390;23;20087;-58
2022/12/11 01:29:59;;;;;;;0.50;0.30;;;0.70;99.90;;;;;;20261477;23;20357;-60
2022/12/11 01:40:08;;;;;;;0.38;0.20;;;0.70;99.90;;;;;;20236509;23;20057;31
2022/12/11 01:50:10;;;;;;;0.40;0.25;;;0.60;99.90;;;;;;20137485;23;20191;-59
2022/12/11 02:00:12;;;;;;;0.63;0.30;;;0.60;99.90;;;;;;20198100;23;20510;-54
2022/12/11 02:10:19;;;;;;;0.73;0.30;;;0.40;99.90;;;;;;20244217;23;20050;-56
2022/12/11 02:20:22;;;;;;;0.60;0.20;;;0.20;99.90;;;;;;20221469;23;20122;-61
2022/12/11 02:30:24;;;;;;;0.32;0.20;;;0.30;99.90;;;;;;20243843;23;20054;-66
2022/12/11 02:50:49;;;;;;;2.08;0.40;;;0.50;99.90;;;;;;20155798;23;20062;-61
2022/12/11 03:00:50;;;;;;;1.27;0.40;;;0.50;99.90;;;;;;20196495;23;1294204;-60
2022/12/11 03:10:52;;;;;;;0.90;0.22;;;0.40;99.90;;;;;;20239964;23;20062;-52
2022/12/11 03:21:01;;;;;;;0.38;0.20;;;0.40;99.90;;;;;;20239011;23;20118;-58
2022/12/11 03:31:08;;;;;;;0.52;0.25;;;0.30;99.90;;;;;;20237721;23;20045;-63
2022/12/11 03:41:44;;;;;;;0.30;0.20;;;0.40;99.90;;;;;;20190809;23;20069;-56
2022/12/11 03:51:52;;;;;;;0.45;0.30;;;0.40;99.90;;;;;;20226121;23;20129;31
2022/12/11 04:01:53;;;;;;;0.88;0.40;;;-0.10;99.90;;;;;;20139363;23;20094;-54
2022/12/11 04:11:55;;;;;;;1.65;0.50;;;-0.70;99.90;;;;;;20216513;23;20569;-60
2022/12/11 04:32:16;;;;;;;1.00;0.63;;;-1.70;99.90;;;;;;20230660;23;20057;-58
2022/12/11 04:42:18;;;;;;;1.20;0.70;;;-1.80;99.90;;;;;;20259284;23;20129;-60
2022/12/11 04:52:26;;;;;;;1.00;0.70;;;-1.90;99.90;;;;;;20209271;23;20074;-52
2022/12/11 05:02:28;;;;;;;1.25;0.50;;;-2.10;99.90;;;;;;20173543;23;20054;-56
2022/12/11 05:12:31;;;;;;;0.63;0.30;;;-2.10;99.90;;;;;;20233550;23;20465;-59
2022/12/11 05:22:32;;;;;;;0.60;0.30;;;-2.10;99.90;;;;;;20232639;23;20487;-60
2022/12/11 05:32:34;;;;;;;0.47;0.30;;;-2.20;99.90;;;;;;20272014;23;20054;-57
2022/12/11 05:42:40;;;;;;;7.88;0.40;;;-2.30;99.90;;;;;;20216856;23;20053;31
2022/12/11 05:52:41;;;;;;;2.17;0.22;;;-2.30;99.90;;;;;;20164741;23;20139;-59
2022/12/11 06:02:43;;;;;;;0.45;0.20;;;-2.50;99.90;;;;;;20221855;23;20113;-55
2022/12/11 06:12:45;;;;;;;8.07;0.20;;;-2.50;99.90;;;;;;20230279;23;20054;-60
2022/12/11 06:22:47;;;;;;;1.85;0.30;;;-2.60;99.90;;;;;;20254782;23;20054;-58
2022/12/11 06:32:52;;;;;;;0.50;0.20;;;-2.80;99.90;;;;;;20244931;23;20412;31
2022/12/11 06:42:53;;;;;;;0.50;0.20;;;-2.80;99.90;;;;;;20147934;23;20094;-57
2022/12/11 06:52:58;;;;;;;0.50;0.20;;;-2.80;99.90;;;;;;20228196;23;20057;-56
2022/12/11 07:03:00;;;;;;;1.10;0.38;;;-2.80;99.90;;;;;;20221527;23;20111;-57
2022/12/11 07:13:01;;;;;;;0.90;0.40;;;-2.80;99.90;;;;;;20239407;23;20054;-54
2022/12/11 07:23:03;;;;;;;0.80;0.30;;;-2.70;99.90;;;;;;20229692;23;20050;-57
2022/12/11 07:33:05;;;;;;;1.00;0.60;;;-2.80;99.90;;;;;;20205562;23;20117;-59
2022/12/11 07:43:07;;;;;;;1.30;0.80;;;-2.90;99.90;;;;;;20229853;23;20061;-58
2022/12/11 07:53:08;;;;;;;1.52;0.90;;;-3.00;99.90;;;;;;20241946;23;20433;-58
2022/12/11 08:03:10;;;;;;;2.40;1.10;;;-3.10;99.90;;;;;;20235428;23;20062;-55
2022/12/11 08:13:12;;;;;;;4.60;1.08;;;-3.20;99.90;;;;;;20252145;23;20524;-57
2022/12/11 08:23:14;;;;;;;1.92;1.05;;;-3.40;99.90;;;;;;20221626;23;20062;-58
2022/12/11 08:33:16;;;;;;;4.43;1.08;;;-3.30;99.90;;;;;;20267813;23;20512;-59
2022/12/11 08:43:18;;;;;;;1.52;0.93;;;-3.40;99.90;;;;;;20242183;23;20118;-56
2022/12/11 08:53:19;;;;;;;3.13;1.80;;;-3.50;99.90;;;;;;20250561;23;20050;-53
2022/12/11 09:03:23;;;;;;;6.50;1.92;;;-3.70;99.90;;;;;;20217120;23;20058;31
2022/12/11 09:13:25;;;;;;;3.67;2.00;;;-3.70;99.90;;;;;;20149718;23;20137;-54
2022/12/11 09:23:26;;;;;;;3.38;1.92;;;-3.70;99.90;;;;;;20247503;23;20507;-59
2022/12/11 09:33:28;;;;;;;3.25;1.80;;;-3.70;99.90;;;;;;20876009;23;20528;-51
2022/12/11 09:43:39;;;;;;;3.53;1.50;;;-3.90;99.90;;;;;;20216814;23;20594;-55
2022/12/11 09:53:40;;;;;;;6.90;1.77;;;-3.90;99.90;;;;;;20200965;23;20045;-58
2022/12/11 10:04:01;;;;;;;10.70;2.08;;;-3.90;99.90;;;;;;20191247;23;20083;-60
2022/12/11 10:14:28;;;;;;;5.25;1.67;;;-4.00;99.90;;;;;;20142045;23;20521;-56
2022/12/11 10:24:56;;;;;;;3.28;1.70;;;-3.90;99.90;;;;;;20166473;23;20427;-51
2022/12/11 10:35:02;;;;;;;3.47;1.88;;;-4.00;99.90;;;;;;20123575;23;20058;-56
2022/12/11 10:45:05;;;;;;;3.38;1.63;;;-4.10;99.90;;;;;;20191463;23;20470;-59
2022/12/11 10:55:23;;;;;;;3.35;1.90;;;-4.20;99.90;;;;;;20205487;23;20106;-66
2022/12/11 11:05:35;;;;;;;3.42;1.77;;;-4.20;99.90;;;;;;20223798;23;20121;-54
2022/12/11 11:15:36;;;;;;;4.03;2.13;;;-4.30;99.90;;;;;;20252931;23;20061;-55
2022/12/11 11:25:51;;;;;;;3.47;1.88;;;-4.20;99.90;;;;;;20203979;23;20082;-48
2022/12/11 11:36:19;;;;;;;3.40;1.63;;;-4.10;99.90;;;;;;20194308;23;20069;-57
2022/12/11 11:57:36;;;;;;;2.38;1.40;;;-3.90;99.90;;;;;;21100073;22;1552673;-62
2022/12/11 12:07:56;;;;;;;3.33;1.80;;;-3.20;99.90;;;;;;20880013;22;20025;-62
2022/12/11 12:18:18;;;;;;;3.60;1.77;;;-3.10;99.90;;;;;;20960221;22;20065;-57
2022/12/11 12:28:52;;;;;;;3.00;1.60;;;-2.90;99.90;;;;;;20928298;22;20081;-58
2022/12/11 12:39:23;;;;;;;3.70;1.73;;;-2.10;99.90;;;;;;20906964;22;20046;-58
2022/12/11 12:49:44;;;;;;;2.88;1.70;;;-2.10;99.90;;;;;;20927820;22;20069;-60
2022/12/11 12:59:54;;;;;;;2.63;1.52;;;-3.00;99.90;;;;;;20938013;22;20082;-56
2022/12/11 13:10:33;;;;;;;1.95;1.38;;;-3.20;99.90;;;;;;20892697;22;20104;-56
2022/12/11 13:20:47;;;;;;;3.35;1.77;;;-3.00;99.90;;;;;;20924996;22;20078;-61
2022/12/11 13:31:14;;;;;;;3.45;1.92;;;-3.00;99.90;;;;;;20831353;22;20120;-58
2022/12/11 13:41:32;;;;;;;2.63;1.48;;;-2.80;99.90;;;;;;20835456;23;20089;-58
2022/12/11 13:51:36;;;;;;;2.53;1.42;;;-2.60;99.90;;;;;;20853484;22;20417;-60
2022/12/11 14:01:38;;;;;;;2.53;1.30;;;-2.40;99.90;;;;;;20886291;22;20091;-57
2022/12/11 14:11:42;;;;;;;1.73;1.02;;;-2.40;99.90;;;;;;20887997;22;20058;-62
2022/12/11 14:21:55;;;;;;;2.35;1.33;;;-2.70;99.90;;;;;;20942304;22;20397;-58
2022/12/11 14:32:02;;;;;;;2.08;1.15;;;-2.80;99.90;;;;;;20919035;22;20021;-60
2022/12/11 14:42:22;;;;;;;2.90;1.45;;;-2.10;99.90;;;;;;20827713;23;20065;31
2022/12/11 14:52:46;;;;;;;2.70;1.38;;;-2.30;99.90;;;;;;20822121;22;20089;-52
2022/12/11 15:03:05;;;;;;;3.92;1.30;;;-2.40;99.90;;;;;;20812738;23;20574;-59
2022/12/11 15:13:08;;;;;;;1.73;1.00;;;-3.00;99.90;;;;;;20829394;22;20054;-55
2022/12/11 15:23:14;;;;;;;3.17;1.73;;;-4.00;99.90;;;;;;20880599;22;20500;-58
2022/12/11 15:33:20;;;;;;;2.40;1.30;;;-4.70;99.90;;;;;;20848881;22;21497;-53
2022/12/11 15:43:23;;;;;;;2.75;1.40;;;-4.60;99.90;;;;;;20902699;22;20058;-59
2022/12/11 15:53:25;;;;;;;2.30;1.02;;;-4.50;99.90;;;;;;20862432;22;20053;-57
2022/12/11 16:03:44;;;;;;;1.98;0.90;;;-4.70;99.90;;;;;;20804170;23;20062;-56
2022/12/11 16:13:46;;;;;;;2.70;0.80;;;-5.20;99.90;;;;;;20802340;22;20462;-59
2022/12/11 16:23:48;;;;;;;4.30;1.33;;;-5.50;99.90;;;;;;19952934;23;10002068;-53
2022/12/11 16:33:49;;;;;;;3.53;1.33;;;-5.60;99.90;;;;;;20859677;23;20065;-61
2022/12/11 16:43:52;;;;;;;3.10;1.50;;;-5.70;99.90;;;;;;20914968;23;20391;-56
2022/12/11 16:53:54;;;;;;;2.60;1.42;;;-6.20;99.90;;;;;;20910813;23;20279;-62
2022/12/11 17:03:57;;;;;;;2.50;1.30;;;-6.70;99.90;;;;;;20846138;23;20554;-60
2022/12/11 17:13:59;;;;;;;2.97;1.30;;;-7.20;99.90;;;;;;20880932;23;20116;-53
2022/12/11 17:24:01;;;;;;;2.60;1.20;;;-7.50;99.90;;;;;;20840838;23;20060;-58
2022/12/11 17:34:03;;;;;;;2.57;1.10;;;-7.60;99.90;;;;;;20886216;23;20058;-60
2022/12/11 17:44:05;;;;;;;2.60;1.10;;;-7.80;99.90;;;;;;20910631;23;20126;-53
2022/12/11 17:54:07;;;;;;;1.50;0.80;;;-8.00;99.90;;;;;;20845325;23;20058;-53
2022/12/11 18:04:09;;;;;;;2.75;1.20;;;-7.80;99.90;;;;;;20885687;23;20143;-55
2022/12/11 18:14:11;;;;;;;2.45;1.10;;;-7.50;99.90;;;;;;20875374;23;20072;-56
2022/12/11 18:24:14;;;;;;;2.05;1.10;;;-7.40;99.90;;;;;;20863049;23;20127;-56
2022/12/11 18:34:16;;;;;;;2.90;1.10;;;-7.20;99.90;;;;;;20888037;23;20062;-58
2022/12/11 18:44:21;;;;;;;1.95;0.90;;;-7.00;99.90;;;;;;20807171;23;20124;-59
2022/12/11 18:54:23;;;;;;;1.92;0.73;;;-7.20;99.90;;;;;;20851265;23;20057;-52
2022/12/11 19:04:24;;;;;;;1.40;0.75;;;-7.40;99.90;;;;;;20823102;23;20068;-62
2022/12/11 19:14:26;;;;;;;2.00;0.90;;;-7.30;99.90;;;;;;20895968;23;20046;-51
2022/12/11 19:35:35;;;;;;;1.23;0.60;;;-6.80;99.90;;;;;;21704913;24;20103;-58
2022/12/11 19:45:37;;;;;;;1.38;0.77;;;-7.00;99.90;;;;;;20055346;24;20447;-57
2022/12/11 19:55:45;;;;;;;3.05;0.90;;;-7.30;99.90;;;;;;20023861;24;20096;31
2022/12/11 20:05:47;;;;;;;1.92;0.60;;;-6.90;99.90;;;;;;19995767;24;20055;-57
2022/12/11 20:15:50;;;;;;;2.25;0.90;;;-7.20;99.90;;;;;;20060265;24;20054;-58
2022/12/11 20:25:52;;;;;;;1.98;0.70;;;-7.10;99.90;;;;;;20062609;24;20342;-57
2022/12/11 20:35:54;;;;;;;1.77;0.60;;;-6.70;99.70;;;;;;20060682;24;20125;-56
2022/12/11 20:45:56;;;;;;;0.90;0.50;;;-6.70;97.60;;;;;;20001652;24;1314613;-50
2022/12/11 20:55:58;;;;;;;1.30;0.52;;;-6.90;96.50;;;;;;20005228;24;20059;-55
2022/12/11 21:06:00;;;;;;;1.05;0.40;;;-6.80;96.80;;;;;;20062926;24;20059;-58
2022/12/11 21:16:06;;;;;;;2.03;0.60;;;-7.20;98.20;;;;;;20057836;24;20092;-61
2022/12/11 21:26:08;;;;;;;0.90;0.32;;;-7.70;98.80;;;;;;20062110;24;20059;-59
2022/12/11 21:36:12;;;;;;;0.80;0.30;;;-8.00;97.90;;;;;;20067831;24;20096;-55
2022/12/11 21:46:17;;;;;;;1.20;0.52;;;-7.20;94.10;;;;;;19990713;24;20499;-58
2022/12/11 21:56:22;;;;;;;0.35;0.22;;;-7.20;93.50;;;;;;20045529;24;20131;-57
2022/12/11 22:06:23;;;;;;;0.63;0.30;;;-7.60;94.50;;;;;;20052375;24;20059;-60
2022/12/11 22:16:26;;;;;;;1.10;0.37;;;-7.60;94.10;;;;;;20046277;24;20104;-57
2022/12/11 22:26:28;;;;;;;1.30;0.40;;;-8.30;99.60;;;;;;20021871;24;20043;-56
2022/12/11 22:36:30;;;;;;;0.80;0.30;;;-8.30;99.90;;;;;;20008715;24;20092;-58
2022/12/11 22:46:32;;;;;;;1.23;0.30;;;;;;;;;;20120008;23;20466;-58
2022/12/11 22:56:34;;;;;;;0.70;0.30;;;;;;;;;;20028349;24;20043;-58
2022/12/11 23:06:36;;;;;;;0.40;0.20;;;;;;;;;;20053263;24;20058;-57
2022/12/11 23:16:39;;;;;;;0.80;0.30;;;;;;;;;;20060723;24;20124;-56
2022/12/11 23:26:41;;;;;;;0.98;0.35;;;;;;;;;;20016908;24;20119;-55
2022/12/11 23:36:43;;;;;;;1.13;0.45;;;;;;;;;;20047579;24;20058;-59
2022/12/11 23:46:45;;;;;;;1.70;0.30;;;;;;;;;;20057520;24;20587;-56
2022/12/11 23:56:47;;;;;;;0.90;0.30;;;;;;;;;;20062775;24;20139;-58
